createdAt,value
2022-10-22T00:01:13.486Z,57.20
2022-10-22T00:03:41.581Z,57.10
2022-10-22T00:06:09.780Z,57.10
2022-10-22T00:08:37.939Z,57.10
2022-10-22T00:11:13.387Z,57.10
2022-10-22T00:13:43.295Z,57.20
2022-10-22T00:16:11.540Z,57.30
2022-10-22T00:18:40.435Z,57.10
2022-10-22T00:21:09.413Z,57.20
2022-10-22T00:23:37.533Z,57.30
2022-10-22T00:26:05.857Z,57.10
2022-10-22T00:28:33.967Z,57.10
2022-10-22T00:31:03.733Z,57.20
2022-10-22T00:33:32.473Z,57.20
2022-10-22T00:36:00.568Z,57.20
2022-10-22T00:38:28.650Z,57.30
2022-10-22T00:40:56.984Z,57.30
2022-10-22T00:43:25.225Z,57.30
2022-10-22T00:45:53.296Z,57.20
2022-10-22T00:48:26.732Z,57.30
2022-10-22T00:50:58.086Z,57.20
2022-10-22T00:53:30.401Z,57.30
2022-10-22T00:55:58.678Z,57.30
2022-10-22T00:58:30.195Z,57.30
2022-10-22T01:00:59.297Z,57.40
2022-10-22T01:03:29.332Z,57.50
2022-10-22T01:05:58.173Z,57.50
2022-10-22T01:08:32.000Z,57.50
2022-10-22T01:11:09.156Z,57.50
2022-10-22T01:13:49.494Z,57.50
2022-10-22T01:16:23.572Z,57.50
2022-10-22T01:19:02.475Z,57.40
2022-10-22T01:21:35.112Z,57.40
2022-10-22T01:24:37.150Z,57.50
2022-10-22T01:27:16.552Z,57.40
2022-10-22T01:29:49.747Z,57.50
2022-10-22T01:32:20.529Z,57.50
2022-10-22T01:34:58.490Z,57.50
2022-10-22T01:37:30.851Z,57.50
2022-10-22T01:40:00.648Z,57.60
2022-10-22T01:42:29.320Z,57.50
2022-10-22T01:44:58.753Z,57.60
2022-10-22T01:47:41.176Z,57.60
2022-10-22T01:50:36.197Z,57.60
2022-10-22T01:53:28.403Z,58.30
2022-10-22T01:56:11.113Z,57.70
2022-10-22T01:58:45.459Z,57.60
2022-10-22T02:01:24.740Z,57.60
2022-10-22T02:04:06.302Z,57.60
2022-10-22T02:06:37.475Z,57.60
2022-10-22T02:09:07.305Z,57.70
2022-10-22T02:11:35.905Z,57.80
2022-10-22T02:14:06.243Z,57.70
2022-10-22T02:16:39.891Z,57.80
2022-10-22T02:19:16.975Z,57.70
2022-10-22T02:21:45.930Z,57.70
2022-10-22T02:24:14.735Z,57.70
2022-10-22T02:26:48.413Z,57.80
2022-10-22T02:29:21.618Z,57.80
2022-10-22T02:31:53.414Z,57.80
2022-10-22T02:34:26.203Z,57.80
2022-10-22T02:36:55.139Z,57.80
2022-10-22T02:39:23.417Z,57.90
2022-10-22T02:41:51.540Z,57.80
2022-10-22T02:44:22.751Z,57.80
2022-10-22T02:46:52.495Z,57.80
2022-10-22T02:49:20.596Z,57.80
2022-10-22T02:51:48.784Z,57.80
2022-10-22T02:54:16.862Z,57.90
2022-10-22T02:56:44.963Z,57.80
2022-10-22T02:59:13.031Z,57.90
2022-10-22T03:01:41.198Z,57.90
2022-10-22T03:04:10.824Z,57.80
2022-10-22T03:06:39.001Z,57.80
2022-10-22T03:09:07.093Z,57.90
2022-10-22T03:11:35.228Z,57.90
2022-10-22T03:14:03.319Z,57.90
2022-10-22T03:16:31.417Z,57.90
2022-10-22T03:18:59.499Z,57.90
2022-10-22T03:21:33.190Z,58.00
2022-10-22T03:24:04.315Z,58.00
2022-10-22T03:26:33.748Z,58.00
2022-10-22T03:29:02.289Z,58.00
2022-10-22T03:31:30.365Z,58.00
2022-10-22T03:33:58.484Z,58.00
2022-10-22T03:36:28.524Z,58.00
2022-10-22T03:38:56.445Z,58.10
2022-10-22T03:41:24.722Z,58.10
2022-10-22T03:43:53.851Z,58.00
2022-10-22T03:46:22.011Z,58.00
2022-10-22T03:48:50.132Z,58.10
2022-10-22T03:51:18.259Z,58.10
2022-10-22T03:53:47.741Z,58.00
2022-10-22T03:56:15.980Z,58.00
2022-10-22T03:58:44.101Z,58.10
2022-10-22T04:01:13.627Z,58.00
2022-10-22T04:03:42.323Z,58.10
2022-10-22T04:06:14.459Z,58.20
2022-10-22T04:08:45.722Z,58.10
2022-10-22T04:11:16.496Z,58.10
2022-10-22T04:13:44.985Z,58.10
2022-10-22T04:16:14.862Z,58.10
2022-10-22T04:18:44.045Z,58.10
2022-10-22T04:21:14.000Z,58.10
2022-10-22T04:23:45.254Z,58.10
2022-10-22T04:26:15.482Z,58.20
2022-10-22T04:28:43.946Z,58.20
2022-10-22T04:31:15.079Z,58.10
2022-10-22T04:33:43.584Z,58.20
2022-10-22T04:36:13.861Z,58.20
2022-10-22T04:38:43.159Z,58.10
2022-10-22T04:41:12.906Z,58.10
2022-10-22T04:43:43.003Z,58.10
2022-10-22T04:46:12.004Z,58.10
2022-10-22T04:48:41.847Z,58.10
2022-10-22T04:51:12.423Z,58.20
2022-10-22T04:53:40.778Z,58.10
2022-10-22T04:56:10.552Z,58.10
2022-10-22T04:58:39.267Z,58.20
2022-10-22T05:01:14.072Z,58.10
2022-10-22T05:03:42.297Z,58.00
2022-10-22T05:08:44.516Z,58.10
2022-10-22T05:11:14.515Z,58.10
2022-10-22T05:13:42.861Z,58.20
2022-10-22T05:16:12.339Z,58.20
2022-10-22T05:18:42.283Z,58.20
2022-10-22T05:21:11.199Z,58.20
2022-10-22T05:23:39.752Z,58.30
2022-10-22T05:26:09.526Z,58.30
2022-10-22T05:28:37.991Z,58.20
2022-10-22T05:31:08.098Z,58.30
2022-10-22T05:33:37.302Z,58.30
2022-10-22T05:36:07.676Z,58.30
2022-10-22T05:38:36.824Z,58.30
2022-10-22T05:41:07.504Z,58.30
2022-10-22T05:43:36.412Z,58.30
2022-10-22T05:46:05.324Z,58.30
2022-10-22T05:48:33.847Z,58.30
2022-10-22T05:51:05.652Z,58.40
2022-10-22T05:53:34.700Z,58.30
2022-10-22T05:56:03.393Z,58.30
2022-10-22T05:58:32.091Z,58.30
2022-10-22T06:01:04.678Z,58.30
2022-10-22T06:03:32.926Z,58.30
2022-10-22T06:06:13.497Z,58.30
2022-10-22T06:08:41.708Z,58.40
2022-10-22T06:11:09.999Z,58.30
2022-10-22T06:13:38.552Z,58.40
2022-10-22T06:16:06.706Z,58.30
2022-10-22T06:18:35.021Z,58.30
2022-10-22T06:21:09.125Z,58.30
2022-10-22T06:23:37.755Z,58.20
2022-10-22T06:26:06.567Z,58.30
2022-10-22T06:28:34.865Z,58.20
2022-10-22T06:31:04.719Z,58.30
2022-10-22T06:33:34.158Z,58.20
2022-10-22T06:36:08.743Z,58.20
2022-10-22T06:38:36.806Z,58.20
2022-10-22T06:41:06.331Z,58.10
2022-10-22T06:43:34.605Z,58.20
2022-10-22T06:46:04.031Z,58.20
2022-10-22T06:48:32.485Z,58.20
2022-10-22T06:51:03.532Z,58.20
2022-10-22T06:53:33.529Z,58.00
2022-10-22T06:56:05.557Z,58.00
2022-10-22T06:58:33.680Z,57.90
2022-10-22T07:01:03.652Z,57.70
2022-10-22T07:03:31.599Z,57.70
2022-10-22T07:06:02.131Z,57.80
2022-10-22T07:08:30.570Z,57.60
2022-10-22T07:11:07.776Z,57.50
2022-10-22T07:13:36.222Z,57.60
2022-10-22T07:16:04.575Z,57.30
2022-10-22T07:18:34.084Z,57.30
2022-10-22T07:21:02.487Z,57.30
2022-10-22T07:23:31.464Z,57.30
2022-10-22T07:26:02.602Z,57.10
2022-10-22T07:28:32.606Z,57.00
2022-10-22T07:31:00.901Z,56.90
2022-10-22T07:33:29.043Z,56.90
2022-10-22T07:36:00.001Z,56.70
2022-10-22T07:38:28.556Z,56.50
2022-10-22T07:40:56.694Z,56.40
2022-10-22T07:43:26.805Z,55.90
2022-10-22T07:45:55.842Z,55.90
2022-10-22T07:48:24.334Z,55.90
2022-10-22T07:50:52.688Z,55.20
2022-10-22T07:53:22.123Z,54.90
2022-10-22T07:55:50.199Z,54.30
2022-10-22T07:58:18.858Z,54.00
2022-10-22T08:00:49.439Z,53.50
2022-10-22T08:03:19.387Z,53.10
2022-10-22T08:05:47.309Z,52.70
2022-10-22T08:08:16.715Z,52.20
2022-10-22T08:10:45.014Z,51.90
2022-10-22T08:13:13.112Z,51.70
2022-10-22T08:15:41.353Z,51.40
2022-10-22T08:18:11.200Z,51.30
2022-10-22T08:20:39.280Z,50.70
2022-10-22T08:23:07.380Z,50.60
2022-10-22T08:25:35.435Z,50.20
2022-10-22T08:28:03.507Z,49.80
2022-10-22T08:30:33.885Z,49.60
2022-10-22T08:33:01.958Z,49.10
2022-10-22T08:35:31.364Z,49.20
2022-10-22T08:37:59.424Z,48.70
2022-10-22T08:40:31.492Z,48.20
2022-10-22T08:43:23.321Z,47.00
2022-10-22T08:46:03.890Z,47.40
2022-10-22T08:48:43.658Z,47.40
2022-10-22T08:51:17.051Z,47.90
2022-10-22T08:54:09.543Z,47.90
2022-10-22T08:56:38.264Z,48.20
2022-10-22T08:59:15.046Z,47.70
2022-10-22T09:01:46.763Z,47.50
2022-10-22T09:04:25.197Z,47.10
2022-10-22T09:06:56.599Z,46.90
2022-10-22T09:09:29.659Z,47.10
2022-10-22T09:12:00.486Z,47.30
2022-10-22T09:14:29.955Z,47.80
2022-10-22T09:17:13.458Z,48.40
2022-10-22T09:19:54.327Z,46.40
2022-10-22T09:22:32.045Z,46.80
2022-10-22T09:25:10.916Z,46.30
2022-10-22T09:27:39.288Z,45.20
2022-10-22T09:30:14.770Z,43.90
2022-10-22T09:32:43.384Z,43.40
2022-10-22T09:35:13.350Z,42.40
2022-10-22T09:37:51.609Z,41.60
2022-10-22T09:40:20.036Z,41.70
2022-10-22T09:42:48.515Z,40.00
2022-10-22T09:45:21.084Z,40.20
2022-10-22T09:48:01.460Z,41.30
2022-10-22T09:50:40.054Z,40.80
2022-10-22T09:53:15.348Z,41.20
2022-10-22T09:55:44.459Z,43.50
2022-10-22T09:58:14.379Z,42.00
2022-10-22T10:00:46.468Z,40.70
2022-10-22T10:03:19.557Z,41.00
2022-10-22T10:05:53.719Z,41.70
2022-10-22T10:08:23.964Z,41.60
2022-10-22T10:10:56.868Z,41.90
2022-10-22T10:13:35.533Z,43.20
2022-10-22T10:16:10.264Z,42.20
2022-10-22T10:18:50.135Z,42.50
2022-10-22T10:21:27.824Z,41.30
2022-10-22T10:24:04.349Z,41.70
2022-10-22T10:26:36.873Z,42.60
2022-10-22T10:29:22.323Z,41.60
2022-10-22T10:32:07.607Z,41.40
2022-10-22T10:34:47.199Z,41.30
2022-10-22T10:37:20.097Z,41.50
2022-10-22T10:40:04.241Z,42.00
2022-10-22T10:42:36.546Z,42.10
2022-10-22T10:45:17.096Z,42.50
2022-10-22T10:48:11.182Z,43.10
2022-10-22T10:50:51.494Z,43.60
2022-10-22T10:53:27.726Z,44.10
2022-10-22T10:56:04.421Z,44.30
2022-10-22T10:58:40.521Z,44.60
2022-10-22T11:01:17.284Z,44.90
2022-10-22T11:03:59.511Z,45.30
2022-10-22T11:06:29.414Z,45.60
2022-10-22T11:09:03.362Z,45.30
2022-10-22T11:11:37.706Z,42.80
2022-10-22T11:14:12.576Z,42.70
2022-10-22T11:16:45.698Z,42.20
2022-10-22T11:19:22.791Z,41.40
2022-10-22T11:22:07.385Z,41.40
2022-10-22T11:24:40.448Z,39.20
2022-10-22T11:27:20.573Z,38.30
2022-10-22T11:29:53.363Z,39.00
2022-10-22T11:32:26.464Z,39.60
2022-10-22T11:34:58.359Z,38.20
2022-10-22T11:37:33.179Z,38.80
2022-10-22T11:40:06.478Z,38.70
2022-10-22T11:42:39.333Z,39.00
2022-10-22T11:45:29.626Z,39.40
2022-10-22T11:48:00.928Z,39.70
2022-10-22T11:50:47.087Z,40.50
2022-10-22T11:53:30.697Z,41.00
2022-10-22T11:56:03.995Z,41.30
2022-10-22T11:58:36.144Z,42.00
2022-10-22T12:01:26.308Z,42.20
2022-10-22T12:04:15.415Z,42.60
2022-10-22T12:06:55.893Z,42.80
2022-10-22T12:09:26.626Z,43.00
2022-10-22T12:11:55.726Z,43.30
2022-10-22T12:14:29.647Z,43.60
2022-10-22T12:16:59.621Z,44.40
2022-10-22T12:19:31.155Z,44.20
2022-10-22T12:22:01.466Z,44.80
2022-10-22T12:24:35.669Z,44.90
2022-10-22T12:27:04.255Z,44.80
2022-10-22T12:29:34.646Z,45.00
2022-10-22T12:32:05.482Z,45.10
2022-10-22T12:34:33.516Z,45.10
2022-10-22T12:37:05.617Z,45.10
2022-10-22T12:39:35.407Z,45.40
2022-10-22T12:42:07.278Z,45.50
2022-10-22T12:44:36.717Z,45.40
2022-10-22T12:47:05.216Z,45.30
2022-10-22T12:49:39.924Z,45.10
2022-10-22T12:52:14.066Z,44.90
2022-10-22T12:54:42.446Z,44.80
2022-10-22T12:57:13.876Z,44.90
2022-10-22T12:59:48.888Z,44.80
2022-10-22T13:02:22.558Z,44.80
2022-10-22T13:05:22.367Z,44.90
2022-10-22T13:07:52.890Z,45.00
2022-10-22T13:10:26.367Z,45.10
2022-10-22T13:12:57.915Z,44.90
2022-10-22T13:15:39.962Z,44.80
2022-10-22T13:18:18.275Z,44.80
2022-10-22T13:20:57.173Z,44.80
2022-10-22T13:23:28.111Z,44.80
2022-10-22T13:26:01.302Z,44.90
2022-10-22T13:28:31.646Z,45.20
2022-10-22T13:31:04.410Z,45.20
2022-10-22T13:33:36.726Z,45.30
2022-10-22T13:36:06.355Z,45.60
2022-10-22T13:38:34.683Z,45.70
2022-10-22T13:41:03.288Z,45.80
2022-10-22T13:43:31.683Z,46.00
2022-10-22T13:46:01.667Z,46.20
2022-10-22T13:48:31.163Z,46.00
2022-10-22T13:50:59.384Z,46.10
2022-10-22T13:53:30.012Z,45.90
2022-10-22T13:55:58.193Z,45.60
2022-10-22T13:58:26.567Z,45.50
2022-10-22T14:00:57.127Z,45.50
2022-10-22T14:03:30.244Z,45.60
2022-10-22T14:05:58.632Z,45.60
2022-10-22T14:08:28.159Z,45.70
2022-10-22T14:10:56.685Z,45.90
2022-10-22T14:13:25.071Z,46.60
2022-10-22T14:15:54.065Z,46.00
2022-10-22T14:18:26.660Z,46.20
2022-10-22T14:20:58.722Z,46.20
2022-10-22T14:23:29.409Z,46.30
2022-10-22T14:25:58.337Z,46.40
2022-10-22T14:28:26.565Z,46.50
2022-10-22T14:30:56.008Z,46.50
2022-10-22T14:33:30.402Z,46.40
2022-10-22T14:36:01.157Z,46.50
2022-10-22T14:38:29.567Z,46.70
2022-10-22T14:40:58.188Z,47.10
2022-10-22T14:43:28.433Z,47.00
2022-10-22T14:45:56.825Z,47.00
2022-10-22T14:48:25.104Z,47.20
2022-10-22T14:50:53.204Z,47.50
2022-10-22T14:53:22.639Z,47.60
2022-10-22T14:55:51.611Z,47.60
2022-10-22T14:58:19.744Z,47.80
2022-10-22T15:00:47.843Z,48.00
2022-10-22T15:03:15.942Z,48.10
2022-10-22T15:05:45.053Z,48.10
2022-10-22T15:08:14.707Z,48.10
2022-10-22T15:10:44.186Z,48.20
2022-10-22T15:13:12.465Z,48.20
2022-10-22T15:15:41.554Z,48.20
2022-10-22T15:18:09.669Z,48.30
2022-10-22T15:20:37.735Z,48.40
2022-10-22T15:23:05.863Z,48.50
2022-10-22T15:25:33.896Z,48.60
2022-10-22T15:28:09.351Z,48.60
2022-10-22T15:30:38.277Z,48.80
2022-10-22T15:33:06.746Z,48.80
2022-10-22T15:35:34.801Z,49.50
2022-10-22T15:38:02.895Z,48.80
2022-10-22T15:40:30.977Z,49.00
2022-10-22T15:42:59.168Z,49.00
2022-10-22T15:45:28.626Z,49.00
2022-10-22T15:47:56.675Z,49.20
2022-10-22T15:50:24.740Z,49.40
2022-10-22T15:52:53.735Z,49.30
2022-10-22T15:55:22.673Z,49.30
2022-10-22T15:57:54.882Z,49.20
2022-10-22T16:00:25.286Z,49.30
2022-10-22T16:02:55.389Z,49.40
2022-10-22T16:05:23.477Z,49.40
2022-10-22T16:07:55.647Z,49.40
2022-10-22T16:10:24.460Z,49.50
2022-10-22T16:12:54.556Z,49.50
2022-10-22T16:15:22.636Z,49.70
2022-10-22T16:17:52.554Z,49.70
2022-10-22T16:20:21.787Z,49.80
2022-10-22T16:22:51.255Z,49.90
2022-10-22T16:25:19.332Z,50.00
2022-10-22T16:27:50.641Z,50.10
2022-10-22T16:30:19.422Z,50.20
2022-10-22T16:32:47.474Z,50.40
2022-10-22T16:35:15.665Z,50.40
2022-10-22T16:37:45.083Z,50.50
2022-10-22T16:40:14.043Z,50.50
2022-10-22T16:42:42.148Z,50.60
2022-10-22T16:45:11.131Z,50.50
2022-10-22T16:47:40.277Z,50.80
2022-10-22T16:50:09.599Z,50.70
2022-10-22T16:52:37.647Z,50.90
2022-10-22T16:55:07.690Z,50.90
2022-10-22T16:57:35.965Z,51.00
2022-10-22T17:00:05.576Z,51.10
2022-10-22T17:02:33.589Z,51.10
2022-10-22T17:05:01.620Z,51.20
2022-10-22T17:07:29.660Z,51.30
2022-10-22T17:09:57.718Z,51.30
2022-10-22T17:12:27.156Z,51.40
2022-10-22T17:14:55.202Z,51.50
2022-10-22T17:17:23.238Z,51.50
2022-10-22T17:19:51.304Z,51.60
2022-10-22T17:22:19.366Z,51.60
2022-10-22T17:24:47.563Z,51.70
2022-10-22T17:27:15.692Z,51.70
2022-10-22T17:29:45.179Z,51.70
2022-10-22T17:32:13.335Z,51.80
2022-10-22T17:34:41.382Z,51.80
2022-10-22T17:37:09.451Z,52.00
2022-10-22T17:39:37.499Z,52.00
2022-10-22T17:42:06.252Z,52.00
2022-10-22T17:44:34.353Z,52.10
2022-10-22T17:47:04.342Z,52.10
2022-10-22T17:49:32.182Z,52.10
2022-10-22T17:54:33.678Z,52.20
2022-10-22T17:57:01.774Z,52.30
2022-10-22T17:59:30.065Z,52.40
2022-10-22T18:02:02.136Z,52.30
2022-10-22T18:04:32.761Z,52.40
2022-10-22T18:07:01.582Z,52.40
2022-10-22T18:09:29.594Z,52.50
2022-10-22T18:11:57.676Z,52.50
2022-10-22T18:14:25.995Z,52.60
2022-10-22T18:16:54.623Z,52.60
2022-10-22T18:19:24.652Z,52.60
2022-10-22T18:21:54.130Z,52.60
2022-10-22T18:24:22.289Z,52.70
2022-10-22T18:26:50.395Z,52.80
2022-10-22T18:29:20.774Z,52.70
2022-10-22T18:31:49.159Z,52.80
2022-10-22T18:34:20.253Z,52.80
2022-10-22T18:36:51.309Z,52.90
2022-10-22T18:39:20.777Z,52.80
2022-10-22T18:41:49.122Z,52.90
2022-10-22T18:44:17.964Z,52.90
2022-10-22T18:46:46.080Z,52.90
2022-10-22T18:49:18.179Z,53.00
2022-10-22T18:51:47.107Z,53.10
2022-10-22T18:54:23.944Z,53.10
2022-10-22T18:56:56.259Z,53.10
2022-10-22T18:59:26.884Z,53.40
2022-10-22T19:01:57.596Z,53.10
2022-10-22T19:04:27.092Z,53.10
2022-10-22T19:06:55.238Z,53.20
2022-10-22T19:09:26.454Z,53.20
2022-10-22T19:11:56.025Z,53.20
2022-10-22T19:14:24.136Z,53.30
2022-10-22T19:16:52.211Z,53.30
2022-10-22T19:19:21.927Z,53.30
2022-10-22T19:21:50.540Z,53.30
2022-10-22T19:24:20.488Z,53.40
2022-10-22T19:26:48.834Z,53.40
2022-10-22T19:29:19.620Z,53.30
2022-10-22T19:31:50.573Z,53.40
2022-10-22T19:34:19.306Z,53.40
2022-10-22T19:36:47.398Z,53.50
2022-10-22T19:39:17.649Z,53.50
2022-10-22T19:41:46.026Z,53.50
2022-10-22T19:44:14.248Z,53.60
2022-10-22T19:46:43.708Z,53.50
2022-10-22T19:49:12.727Z,53.70
2022-10-22T19:51:41.084Z,54.30
2022-10-22T19:54:12.602Z,53.70
2022-10-22T19:56:41.499Z,53.70
2022-10-22T19:59:09.537Z,53.70
2022-10-22T20:01:38.056Z,53.60
2022-10-22T20:04:08.080Z,53.70
2022-10-22T20:06:36.158Z,53.80
2022-10-22T20:09:04.297Z,53.80
2022-10-22T20:11:32.425Z,53.70
2022-10-22T20:14:00.835Z,53.70
2022-10-22T20:16:30.657Z,53.80
2022-10-22T20:19:02.008Z,53.90
2022-10-22T20:21:31.796Z,53.80
2022-10-22T20:24:00.311Z,53.80
2022-10-22T20:26:29.552Z,53.90
2022-10-22T20:28:58.288Z,53.80
2022-10-22T20:31:28.576Z,53.90
2022-10-22T20:33:58.670Z,53.90
2022-10-22T20:36:27.218Z,54.00
2022-10-22T20:39:00.668Z,54.00
2022-10-22T20:41:29.043Z,54.00
2022-10-22T20:43:57.567Z,54.00
2022-10-22T20:46:27.154Z,54.00
2022-10-22T20:48:58.100Z,54.00
2022-10-22T20:51:26.209Z,53.90
2022-10-22T20:53:54.387Z,54.10
2022-10-22T20:56:24.310Z,54.60
2022-10-22T20:59:03.931Z,54.10
2022-10-22T21:01:34.074Z,54.00
2022-10-22T21:04:02.270Z,54.00
2022-10-22T21:06:30.862Z,54.00
2022-10-22T21:08:59.169Z,54.00
2022-10-22T21:11:28.660Z,54.00
2022-10-22T21:13:56.818Z,54.00
2022-10-22T21:16:24.867Z,54.00
2022-10-22T21:18:52.963Z,54.10
2022-10-22T21:21:21.007Z,54.00
2022-10-22T21:23:50.274Z,54.00
2022-10-22T21:26:18.596Z,54.10
2022-10-22T21:28:48.552Z,54.10
2022-10-22T21:31:21.897Z,54.10
2022-10-22T21:33:51.276Z,54.10
2022-10-22T21:36:22.722Z,54.10
2022-10-22T21:38:52.127Z,54.00
2022-10-22T21:41:22.135Z,54.10
2022-10-22T21:43:51.809Z,54.10
2022-10-22T21:46:21.538Z,54.10
2022-10-22T21:48:53.661Z,54.10
2022-10-22T21:51:23.204Z,54.10
2022-10-22T21:56:27.440Z,54.10
2022-10-22T21:58:56.921Z,54.20
2022-10-22T22:01:25.603Z,54.20
2022-10-22T22:03:54.049Z,54.10
2022-10-22T22:06:24.094Z,54.20
2022-10-22T22:08:52.959Z,54.20
2022-10-22T22:11:23.511Z,54.20
2022-10-22T22:13:52.219Z,54.10
2022-10-22T22:16:27.123Z,54.20
2022-10-22T22:18:57.673Z,54.10
2022-10-22T22:21:26.135Z,54.20
2022-10-22T22:23:54.216Z,54.20
2022-10-22T22:26:28.359Z,54.30
2022-10-22T22:28:58.827Z,54.20
2022-10-22T22:31:29.584Z,54.20
2022-10-22T22:34:01.596Z,54.10
2022-10-22T22:36:33.250Z,54.20
2022-10-22T22:39:01.340Z,54.20
2022-10-22T22:41:29.411Z,54.30
2022-10-22T22:43:57.466Z,54.30
2022-10-22T22:46:27.072Z,54.40
2022-10-22T22:48:55.130Z,54.40
2022-10-22T22:51:23.294Z,54.40
2022-10-22T22:53:51.394Z,54.30
2022-10-22T22:56:21.537Z,54.40
2022-10-22T22:58:49.586Z,54.40
2022-10-22T23:01:20.096Z,54.40
2022-10-22T23:03:53.509Z,54.30
2022-10-22T23:06:21.853Z,54.50
2022-10-22T23:08:52.063Z,54.50
2022-10-22T23:11:21.396Z,54.40
2022-10-22T23:13:52.423Z,54.30
2022-10-22T23:16:23.302Z,54.40
2022-10-22T23:18:54.455Z,54.50
2022-10-22T23:21:24.532Z,54.40
2022-10-22T23:23:55.500Z,54.50
2022-10-22T23:26:25.432Z,54.40
2022-10-22T23:28:53.543Z,54.50
2022-10-22T23:31:22.738Z,54.50
2022-10-22T23:33:52.689Z,54.50
2022-10-22T23:36:20.622Z,54.50
2022-10-22T23:38:49.789Z,54.60
2022-10-22T23:41:18.360Z,54.60
2022-10-22T23:43:46.463Z,54.60
2022-10-22T23:46:15.568Z,54.50
2022-10-22T23:48:43.686Z,54.70
2022-10-22T23:51:16.746Z,54.70
2022-10-22T23:53:46.348Z,54.70
2022-10-22T23:56:18.003Z,54.70
2022-10-22T23:58:46.502Z,54.90
